Time;durP1;ratioP1;P1;durP2;ratioP2;P2;SDS_P1;SDS_P2;PMS_P1;PMS_P2;Temp;Humidity;BMP_temperature;BMP_pressure;BME280_temperature;BME280_humidity;BME280_pressure;Samples;Min_cycle;Max_cycle;Signal;HPM_P1;HPM_P2
2021/12/03 00:00:10;;;;;;;22.27;9.97;;;;;;;0.24;91.16;100656.34;4966015;28;20192;-75
2021/12/03 00:02:35;;;;;;;14.57;9.57;;;;;;;0.24;90.73;100656.34;4951112;28;20209;-76
2021/12/03 00:05:00;;;;;;;16.07;10.37;;;;;;;0.24;91.19;100661.41;4966430;28;20196;-76
2021/12/03 00:07:26;;;;;;;18.43;9.40;;;;;;;0.27;91.11;100668.25;4951443;28;20208;-75
2021/12/03 00:09:51;;;;;;;17.53;9.97;;;;;;;0.24;91.14;100667.28;4951192;28;20201;-75
2021/12/03 00:12:17;;;;;;;15.57;9.77;;;;;;;0.28;90.90;100669.97;4951270;28;20220;-75
2021/12/03 00:14:42;;;;;;;17.00;9.27;;;;;;;0.27;91.08;100674.13;4950014;28;20196;-75
2021/12/03 00:17:07;;;;;;;15.47;9.83;;;;;;;0.27;90.97;100671.63;4951420;28;20204;-75
2021/12/03 00:19:32;;;;;;;14.87;9.60;;;;;;;0.28;91.13;100676.75;4950714;29;20204;-75
2021/12/03 00:21:58;;;;;;;19.10;10.60;;;;;;;0.26;90.92;100671.56;4951268;28;20209;-75
2021/12/03 00:24:23;;;;;;;15.67;9.33;;;;;;;0.26;91.13;100676.59;4951054;28;20228;-75
2021/12/03 00:26:49;;;;;;;15.23;10.30;;;;;;;0.24;90.83;100673.97;4952066;28;20193;-75
2021/12/03 00:29:14;;;;;;;15.53;9.83;;;;;;;0.28;90.25;100678.41;4949886;29;20208;-76
2021/12/03 00:31:40;;;;;;;16.23;9.17;;;;;;;0.24;90.59;100679.00;4965825;28;20248;-75
2021/12/03 00:34:05;;;;;;;16.27;9.03;;;;;;;0.27;90.52;100665.72;4951093;28;20532;-75
2021/12/03 00:36:30;;;;;;;20.00;9.27;;;;;;;0.26;90.71;100669.88;4965629;28;20620;-75
2021/12/03 00:38:59;;;;;;;16.53;8.80;;;;;;;0.25;90.39;100665.63;4951866;28;20196;-75
2021/12/03 00:41:28;;;;;;;16.73;9.70;;;;;;;0.26;90.25;100667.38;4954804;28;20215;-75
2021/12/03 00:43:53;;;;;;;15.87;9.50;;;;;;;0.24;90.10;100664.75;4954750;28;20189;-75
2021/12/03 00:46:20;;;;;;;13.87;8.80;;;;;;;0.22;90.91;100674.69;4954440;28;20200;-75
2021/12/03 00:48:49;;;;;;;14.17;8.67;;;;;;;0.20;90.52;100682.97;4953045;29;20209;-76
2021/12/03 00:51:16;;;;;;;13.97;9.70;;;;;;;0.21;90.05;100676.31;4953274;28;20189;-75
2021/12/03 00:53:43;;;;;;;16.53;9.20;;;;;;;0.20;90.38;100674.59;4954409;28;20216;-76
2021/12/03 00:56:09;;;;;;;15.77;9.10;;;;;;;0.21;90.54;100683.88;4954616;28;20644;-75
2021/12/03 00:58:35;;;;;;;15.97;9.07;;;;;;;0.18;90.41;100687.06;4953905;28;20185;-76
2021/12/03 01:01:01;;;;;;;16.03;9.53;;;;;;;0.19;90.74;100693.84;4969023;28;20229;-76
2021/12/03 01:03:27;;;;;;;15.57;8.80;;;;;;;0.23;91.07;100692.34;4954322;28;20219;-76
2021/12/03 01:05:52;;;;;;;14.27;8.67;;;;;;;0.24;91.36;100702.50;4954409;28;20232;-76
2021/12/03 01:08:18;;;;;;;15.13;9.20;;;;;;;0.28;91.42;100710.25;4968972;28;20249;-76
2021/12/03 01:10:43;;;;;;;16.73;9.20;;;;;;;0.34;91.03;100719.03;4954420;29;20181;-76
2021/12/03 01:13:09;;;;;;;17.37;9.47;;;;;;;0.35;90.51;100715.72;4954173;28;20411;-76
2021/12/03 01:15:37;;;;;;;15.13;9.43;;;;;;;0.32;90.54;100715.53;4969008;28;20200;-75
2021/12/03 01:18:05;;;;;;;16.07;8.90;;;;;;;0.32;91.07;100719.72;4952742;29;20666;-75
2021/12/03 01:20:31;;;;;;;20.63;9.63;;;;;;;0.32;91.20;100717.19;4936978;29;20211;-75
2021/12/03 01:22:57;;;;;;;16.10;9.53;;;;;;;0.32;91.21;100707.97;4954029;28;20208;-75
2021/12/03 01:25:23;;;;;;;14.87;8.67;;;;;;;0.32;91.29;100706.34;4952678;28;20200;-75
2021/12/03 01:27:49;;;;;;;17.37;10.10;;;;;;;0.36;91.55;100694.78;4956197;28;20251;-75
2021/12/03 01:30:17;;;;;;;16.87;9.87;;;;;;;0.43;90.84;100702.78;4968521;28;20602;-75
2021/12/03 01:32:44;;;;;;;18.30;10.23;;;;;;;0.45;91.41;100702.03;4949255;29;20218;-75
2021/12/03 01:35:11;;;;;;;14.37;8.53;;;;;;;0.52;91.06;100701.56;4934763;29;20194;-75
2021/12/03 01:37:37;;;;;;;15.67;9.10;;;;;;;0.47;91.03;100699.66;4939812;29;20181;-75
2021/12/03 01:40:05;;;;;;;16.87;9.83;;;;;;;0.40;91.04;100696.72;4953613;28;20196;-75
2021/12/03 01:42:31;;;;;;;17.30;10.90;;;;;;;0.38;90.51;100693.25;4968378;28;20201;-75
2021/12/03 01:44:56;;;;;;;15.30;9.63;;;;;;;0.40;90.44;100709.28;4952169;29;20678;-76
2021/12/03 01:47:21;;;;;;;19.37;9.80;;;;;;;0.42;91.08;100709.38;4953678;28;20599;-75
2021/12/03 01:49:47;;;;;;;16.80;9.67;;;;;;;0.39;90.60;100722.66;4953505;28;20213;-76
2021/12/03 01:52:12;;;;;;;19.80;10.80;;;;;;;0.37;90.18;100720.84;4952882;28;20595;-75
2021/12/03 01:54:37;;;;;;;14.77;9.63;;;;;;;0.42;90.02;100711.91;4952001;29;20279;-75
2021/12/03 01:57:03;;;;;;;17.67;10.70;;;;;;;0.41;89.79;100713.53;4953340;28;20193;-75
2021/12/03 01:59:29;;;;;;;17.87;9.83;;;;;;;0.40;90.09;100714.31;4953217;28;20312;-75
2021/12/03 02:01:54;;;;;;;15.67;9.83;;;;;;;0.41;90.35;100717.72;4953370;28;20653;-75
2021/12/03 02:04:19;;;;;;;17.17;9.77;;;;;;;0.35;90.45;100720.75;4953643;28;20288;-75
2021/12/03 02:06:45;;;;;;;18.73;9.90;;;;;;;0.40;90.48;100719.38;4953137;28;20193;-75
2021/12/03 02:09:10;;;;;;;14.63;9.97;;;;;;;0.40;89.60;100724.41;4951671;28;20197;-75
2021/12/03 02:11:36;;;;;;;16.10;10.07;;;;;;;0.37;89.66;100731.81;4951859;28;20237;-76
2021/12/03 02:14:02;;;;;;;17.37;10.47;;;;;;;0.37;90.28;100735.94;4953055;28;20283;-75
2021/12/03 02:16:27;;;;;;;18.00;9.57;;;;;;;0.38;89.92;100728.50;4953368;28;20221;-76
2021/12/03 02:18:53;;;;;;;15.00;8.90;;;;;;;0.45;90.08;100728.03;4967670;28;20189;-75
2021/12/03 02:21:19;;;;;;;16.47;9.53;;;;;;;0.45;90.19;100722.16;4953515;28;20260;-75
2021/12/03 02:23:46;;;;;;;14.67;9.67;;;;;;;0.47;89.99;100717.28;4953024;28;20178;-76
2021/12/03 02:26:12;;;;;;;17.80;10.17;;;;;;;0.51;89.95;100725.00;4951701;29;20193;-76
2021/12/03 02:28:45;;;;;;;15.60;9.17;;;;;;;0.49;89.50;100724.91;4953080;28;20185;-76
2021/12/03 02:31:13;;;;;;;13.77;8.50;;;;;;;0.42;90.13;100721.97;4951568;28;20201;-75
2021/12/03 02:33:38;;;;;;;17.40;9.90;;;;;;;0.41;90.62;100727.81;4933694;29;20232;-75
2021/12/03 02:36:04;;;;;;;16.63;9.33;;;;;;;0.40;90.22;100726.06;4948249;29;20815;-75
2021/12/03 02:38:30;;;;;;;16.50;9.63;;;;;;;0.36;90.10;100717.44;4933531;29;20290;-75
2021/12/03 02:40:57;;;;;;;17.20;9.20;;;;;;;0.36;90.64;100732.56;4952554;29;20197;-75
2021/12/03 02:43:23;;;;;;;15.63;9.37;;;;;;;0.32;90.57;100731.53;4952395;28;20211;-75
2021/12/03 02:45:50;;;;;;;13.43;8.80;;;;;;;0.29;90.01;100736.38;4951123;29;20193;-76
2021/12/03 02:48:16;;;;;;;14.90;9.30;;;;;;;0.24;90.68;100732.72;4952377;28;20544;-75
2021/12/03 02:50:41;;;;;;;19.93;9.83;;;;;;;0.23;90.49;100730.09;4951229;29;20201;-75
2021/12/03 02:53:07;;;;;;;16.63;9.97;;;;;;;0.27;91.00;100732.03;4952334;28;20208;-75
2021/12/03 02:55:32;;;;;;;16.50;10.33;;;;;;;0.22;90.91;100734.28;4967142;28;20607;-75
2021/12/03 02:57:57;;;;;;;15.70;9.40;;;;;;;0.20;90.38;100735.84;4952248;28;20296;-75
2021/12/03 03:00:26;;;;;;;15.70;9.80;;;;;;;0.17;91.26;100733.16;4950969;28;20642;-76
2021/12/03 03:02:52;;;;;;;15.60;10.07;;;;;;;0.16;91.09;100733.06;4966675;28;20765;-76
2021/12/03 03:05:19;;;;;;;15.93;9.30;;;;;;;0.16;90.83;100743.13;4966917;28;20212;-75
2021/12/03 03:07:44;;;;;;;18.03;10.50;;;;;;;0.16;90.72;100740.63;4952014;28;20246;-76
2021/12/03 03:10:15;;;;;;;16.53;10.50;;;;;;;0.18;91.16;100744.97;4952034;28;20646;-76
2021/12/03 03:12:42;;;;;;;17.00;11.50;;;;;;;0.23;90.59;100751.13;4952246;28;20213;-75
2021/12/03 03:15:10;;;;;;;18.33;12.33;;;;;;;0.28;91.60;100764.84;4966897;28;20197;-76
2021/12/03 03:17:36;;;;;;;16.20;11.30;;;;;;;0.37;91.34;100771.19;4966845;28;20573;-75
2021/12/03 03:20:03;;;;;;;19.37;12.03;;;;;;;0.33;91.71;100765.97;4950495;29;20247;-75
2021/12/03 03:22:29;;;;;;;24.13;12.03;;;;;;;0.37;91.10;100769.56;4951801;28;20220;-76
2021/12/03 03:24:59;;;;;;;19.23;12.00;;;;;;;0.37;91.25;100766.16;4951635;28;20185;-75
2021/12/03 03:27:27;;;;;;;19.10;12.07;;;;;;;0.40;91.01;100768.88;4966466;28;20201;-76
2021/12/03 03:29:53;;;;;;;17.93;12.03;;;;;;;0.40;90.68;100768.88;4966326;28;20280;-75
2021/12/03 03:32:19;;;;;;;20.40;13.13;;;;;;;0.36;90.95;100757.72;4951785;28;20221;-75
2021/12/03 03:34:44;;;;;;;18.80;12.27;;;;;;;0.37;91.02;100756.09;4951961;28;20339;-75
2021/12/03 03:37:09;;;;;;;19.63;11.63;;;;;;;0.40;90.85;100757.13;4968499;28;20192;-75
2021/12/03 03:39:36;;;;;;;18.37;12.20;;;;;;;0.40;90.79;100751.25;4950347;28;20692;-75
2021/12/03 03:42:01;;;;;;;18.57;11.90;;;;;;;0.41;91.16;100761.38;4952032;28;20299;-76
2021/12/03 03:44:27;;;;;;;21.20;12.17;;;;;;;0.46;90.62;100757.47;4951690;29;20280;-76
2021/12/03 03:46:53;;;;;;;17.17;10.90;;;;;;;0.52;91.55;100756.97;4966559;28;20272;-76
2021/12/03 03:49:20;;;;;;;20.07;12.13;;;;;;;0.55;90.89;100744.56;4951208;28;20188;-75
2021/12/03 03:51:47;;;;;;;18.23;11.33;;;;;;;0.62;91.13;100747.50;4951387;28;20231;-75
2021/12/03 03:54:13;;;;;;;16.57;11.07;;;;;;;0.59;90.50;100752.34;4966231;28;20213;-76
2021/12/03 03:56:39;;;;;;;15.60;11.83;;;;;;;0.54;90.51;100753.75;4950376;29;20201;-75
2021/12/03 03:59:04;;;;;;;19.93;11.73;;;;;;;0.49;90.84;100756.81;4951446;28;20269;-75
2021/12/03 04:01:30;;;;;;;17.83;11.23;;;;;;;0.45;90.46;100753.22;4951732;28;20259;-75
2021/12/03 04:03:55;;;;;;;18.90;12.40;;;;;;;0.42;90.83;100753.06;4951076;28;20196;-75
2021/12/03 04:06:21;;;;;;;17.47;12.33;;;;;;;0.42;90.69;100759.75;4950213;28;20264;-75
2021/12/03 04:08:47;;;;;;;17.57;12.33;;;;;;;0.43;90.96;100753.91;4951290;28;20662;-75
2021/12/03 04:11:18;;;;;;;17.77;12.90;;;;;;;0.41;91.21;100760.53;4951424;28;20211;-75
2021/12/03 04:13:43;;;;;;;20.93;13.13;;;;;;;0.41;90.80;100758.00;4950949;28;20201;-75
2021/12/03 04:16:09;;;;;;;19.47;13.93;;;;;;;0.43;90.60;100764.00;4954531;28;20240;-75
2021/12/03 04:18:34;;;;;;;17.83;12.93;;;;;;;0.40;91.13;100752.09;4955124;28;20200;-75
2021/12/03 04:21:00;;;;;;;20.33;14.20;;;;;;;0.41;91.07;100756.34;4955286;28;20197;-75
2021/12/03 04:23:26;;;;;;;20.60;13.83;;;;;;;0.38;90.39;100752.78;4955233;28;20192;-75
2021/12/03 04:25:51;;;;;;;19.63;14.10;;;;;;;0.38;90.75;100751.16;4953818;28;20285;-76
2021/12/03 04:28:21;;;;;;;20.17;13.37;;;;;;;0.37;90.46;100748.53;4954682;28;20288;-75
2021/12/03 04:30:48;;;;;;;23.23;15.20;;;;;;;0.36;91.33;100742.63;4954915;28;20260;-75
2021/12/03 04:33:14;;;;;;;18.63;15.10;;;;;;;0.36;91.03;100746.81;4953559;29;20243;-76
2021/12/03 04:35:39;;;;;;;19.63;13.90;;;;;;;0.34;90.71;100737.50;4955094;28;20180;-76
2021/12/03 04:38:05;;;;;;;21.67;15.27;;;;;;;0.35;91.13;100738.38;4954877;28;20733;-75
2021/12/03 04:40:32;;;;;;;18.90;14.07;;;;;;;0.31;90.69;100741.50;4954924;28;20212;-75
2021/12/03 04:42:58;;;;;;;20.20;14.67;;;;;;;0.28;90.76;100739.66;4953281;28;20236;-75
2021/12/03 04:45:25;;;;;;;16.77;14.63;;;;;;;0.28;90.44;100755.56;4954448;28;20352;-75
2021/12/03 04:47:52;;;;;;;20.67;14.60;;;;;;;0.28;90.97;100732.91;4954793;28;20189;-76
2021/12/03 04:50:21;;;;;;;20.00;15.33;;;;;;;0.28;90.89;100722.84;4954862;28;20189;-75
2021/12/03 04:52:47;;;;;;;22.90;15.83;;;;;;;0.27;91.37;100728.66;4953852;29;20221;-75
2021/12/03 04:55:13;;;;;;;20.67;15.50;;;;;;;0.28;91.30;100734.63;4953568;29;20189;-75
2021/12/03 04:57:39;;;;;;;21.90;15.10;;;;;;;0.26;90.48;100732.81;4954637;28;20647;-75
2021/12/03 05:00:08;;;;;;;18.73;15.70;;;;;;;0.28;91.46;100729.59;4954360;28;20201;-76
2021/12/03 05:02:34;;;;;;;19.27;15.57;;;;;;;0.23;91.29;100735.16;4954370;28;20260;-76
2021/12/03 05:05:03;;;;;;;19.87;15.90;;;;;;;0.28;91.54;100742.97;4954723;28;20193;-75
2021/12/03 05:07:43;;;;;;;19.50;15.00;;;;;;;0.28;91.47;100738.81;4969151;28;20566;-76
2021/12/03 05:10:09;;;;;;;19.30;14.80;;;;;;;0.29;91.31;100741.41;4953125;29;20284;-76
2021/12/03 05:12:36;;;;;;;18.97;14.30;;;;;;;0.28;91.19;100742.97;4953701;28;20220;-76
2021/12/03 05:15:02;;;;;;;20.07;15.10;;;;;;;0.28;91.48;100746.38;4954402;28;20232;-75
2021/12/03 05:17:28;;;;;;;17.37;14.73;;;;;;;0.29;90.97;100746.44;4968952;28;20760;-75
2021/12/03 05:19:54;;;;;;;19.07;14.70;;;;;;;0.33;91.31;100742.47;4953837;28;20225;-75
2021/12/03 05:22:19;;;;;;;23.27;15.10;;;;;;;0.34;91.13;100744.19;4952835;28;20209;-75
2021/12/03 05:24:46;;;;;;;15.13;13.40;;;;;;;0.37;91.02;100746.03;4952114;28;20197;-76
2021/12/03 05:27:15;;;;;;;16.87;13.50;;;;;;;0.38;91.43;100752.00;4953279;28;20197;-75
2021/12/03 05:29:43;;;;;;;19.87;14.50;;;;;;;0.43;90.71;100751.41;4952354;28;20347;-76
2021/12/03 05:32:09;;;;;;;16.53;14.03;;;;;;;0.47;91.57;100758.34;4954222;28;20227;-76
2021/12/03 05:34:35;;;;;;;19.27;14.03;;;;;;;0.50;91.58;100753.50;4953680;28;20204;-76
2021/12/03 05:37:01;;;;;;;15.23;13.63;;;;;;;0.56;91.38;100758.88;4953838;28;20181;-76
2021/12/03 05:39:27;;;;;;;17.63;14.37;;;;;;;0.58;92.21;100763.22;4953668;28;21045;-76
2021/12/03 05:41:52;;;;;;;16.03;13.77;;;;;;;0.60;91.12;100755.75;4953822;28;20228;-76
2021/12/03 05:44:18;;;;;;;18.77;14.43;;;;;;;0.64;92.19;100752.63;4951631;28;20646;-77
2021/12/03 05:46:43;;;;;;;18.27;15.20;;;;;;;0.65;92.21;100755.25;4953721;29;20639;-75
2021/12/03 05:49:09;;;;;;;18.87;14.37;;;;;;;0.64;92.25;100756.00;4952435;29;20714;-76
2021/12/03 05:51:34;;;;;;;17.83;14.13;;;;;;;0.70;91.79;100743.78;4953542;28;20205;-76
2021/12/03 05:53:59;;;;;;;21.30;14.00;;;;;;;0.68;91.69;100740.28;4953656;28;20193;-76
2021/12/03 05:56:25;;;;;;;15.90;13.87;;;;;;;0.67;91.36;100732.63;4953635;28;20185;-75
2021/12/03 05:58:50;;;;;;;19.63;14.03;;;;;;;0.66;90.94;100744.38;4953369;28;20199;-75
2021/12/03 06:01:17;;;;;;;20.30;15.23;;;;;;;0.66;91.57;100753.56;4953216;28;20193;-76
2021/12/03 06:03:42;;;;;;;19.47;15.13;;;;;;;0.68;91.60;100754.56;4953440;28;20221;-75
2021/12/03 06:06:08;;;;;;;21.73;14.50;;;;;;;0.68;91.34;100750.38;4952419;29;20256;-76
2021/12/03 06:08:33;;;;;;;19.67;14.80;;;;;;;0.67;92.01;100755.31;4953315;28;20686;-76
2021/12/03 06:10:58;;;;;;;16.17;14.33;;;;;;;0.69;92.04;100756.28;4953488;28;20219;-76
2021/12/03 06:13:24;;;;;;;18.07;14.47;;;;;;;0.71;91.30;100755.59;4953141;28;20316;-76
2021/12/03 06:15:49;;;;;;;16.03;13.90;;;;;;;0.70;91.49;100758.00;4951504;29;20286;-75
2021/12/03 06:18:15;;;;;;;23.13;13.80;;;;;;;0.69;90.82;100757.13;4952769;28;20193;-74
2021/12/03 06:20:40;;;;;;;18.57;13.33;;;;;;;0.71;91.36;100757.22;4953147;29;20196;-75
2021/12/03 06:23:05;;;;;;;16.90;13.60;;;;;;;0.72;91.67;100748.91;4953488;28;20217;-75
2021/12/03 06:25:31;;;;;;;17.73;13.57;;;;;;;0.72;90.88;100747.25;4953528;28;20938;-76
2021/12/03 06:27:58;;;;;;;16.17;13.53;;;;;;;0.73;91.51;100746.44;4952774;28;20231;-76
2021/12/03 06:30:25;;;;;;;17.57;13.00;;;;;;;0.72;91.78;100747.25;4953007;28;20197;-76
2021/12/03 06:32:52;;;;;;;14.80;11.77;;;;;;;0.72;91.46;100752.28;4935975;29;20268;-76
2021/12/03 06:35:18;;;;;;;16.80;12.07;;;;;;;0.72;91.35;100742.19;4951561;28;20216;-75
2021/12/03 06:37:44;;;;;;;13.60;11.10;;;;;;;0.80;91.79;100746.03;4952416;28;20204;-75
2021/12/03 06:40:14;;;;;;;14.13;11.40;;;;;;;0.76;91.42;100744.13;4952648;29;20227;-74
2021/12/03 06:42:39;;;;;;;13.37;11.00;;;;;;;0.75;90.48;100749.06;4952756;28;20205;-76
2021/12/03 06:45:06;;;;;;;14.63;10.50;;;;;;;0.77;91.42;100748.34;4951152;29;20195;-75
2021/12/03 06:47:32;;;;;;;13.83;11.10;;;;;;;0.78;91.25;100752.59;4951210;28;20189;-75
2021/12/03 06:49:58;;;;;;;12.43;9.93;;;;;;;0.78;90.28;100764.34;4951072;28;20296;-75
2021/12/03 06:52:25;;;;;;;12.60;9.40;;;;;;;0.84;90.34;100765.56;4967490;28;20223;-75
2021/12/03 06:54:57;;;;;;;12.33;9.97;;;;;;;0.82;90.94;100758.72;4967185;28;20205;-76
2021/12/03 06:57:23;;;;;;;13.23;9.53;;;;;;;0.84;91.18;100764.69;4950979;29;20268;-75
2021/12/03 06:59:48;;;;;;;12.73;8.93;;;;;;;0.88;91.08;100759.94;4951931;28;20786;-76
2021/12/03 07:02:14;;;;;;;11.90;9.47;;;;;;;0.98;90.77;100762.16;4967055;28;20734;-74
2021/12/03 07:04:40;;;;;;;9.53;8.63;;;;;;;0.97;90.82;100764.59;4940208;28;20201;-76
2021/12/03 07:07:05;;;;;;;11.07;8.50;;;;;;;0.92;90.26;100759.28;4951634;29;20193;-76
2021/12/03 07:09:31;;;;;;;11.20;9.17;;;;;;;0.93;90.17;100761.03;4950475;28;20275;-76
2021/12/03 07:11:56;;;;;;;13.47;8.40;;;;;;;0.91;90.48;100754.19;4969475;28;20252;-75
2021/12/03 07:14:21;;;;;;;11.23;8.37;;;;;;;0.91;90.46;100752.50;4951909;29;20217;-76
2021/12/03 07:16:46;;;;;;;10.47;8.17;;;;;;;0.95;90.15;100761.97;4957325;28;20192;-78
2021/12/03 07:19:12;;;;;;;11.93;8.57;;;;;;;0.94;90.22;100760.25;4976581;28;20714;-77
2021/12/03 07:21:37;;;;;;;12.57;8.40;;;;;;;0.96;89.95;100755.31;4961585;29;20361;-77
2021/12/03 07:24:03;;;;;;;13.93;8.33;;;;;;;0.98;89.75;100754.59;4961480;28;20207;-77
2021/12/03 07:26:28;;;;;;;9.37;8.13;;;;;;;1.02;90.03;100763.19;4975227;28;20200;-77
2021/12/03 07:28:54;;;;;;;13.23;8.37;;;;;;;1.00;90.41;100753.03;4959862;28;20204;-77
2021/12/03 07:31:20;;;;;;;10.97;8.40;;;;;;;1.03;89.80;100762.41;4959919;28;20252;-77
2021/12/03 07:33:46;;;;;;;12.90;7.90;;;;;;;1.03;89.66;100758.25;4961799;28;20217;-77
2021/12/03 07:36:12;;;;;;;9.87;7.67;;;;;;;1.08;90.05;100753.44;4967060;28;20618;-75
2021/12/03 07:38:37;;;;;;;11.60;7.73;;;;;;;1.05;89.93;100755.81;4950320;28;20193;-75
2021/12/03 07:41:04;;;;;;;9.93;7.80;;;;;;;1.08;89.15;100761.00;4960131;28;20221;-78
2021/12/03 07:43:29;;;;;;;10.73;7.67;;;;;;;1.12;88.82;100760.38;4970431;28;20204;-78
2021/12/03 07:45:55;;;;;;;11.50;8.50;;;;;;;1.12;89.40;100767.94;4984700;28;20185;-78
2021/12/03 07:48:24;;;;;;;8.43;7.43;;;;;;;1.11;89.34;100759.53;4983779;28;20577;-78
2021/12/03 07:50:51;;;;;;;11.10;7.40;;;;;;;1.09;88.42;100756.06;4968814;28;20261;-78
2021/12/03 07:53:18;;;;;;;12.83;8.00;;;;;;;1.08;88.58;100761.88;4984360;28;20229;-79
2021/12/03 07:55:44;;;;;;;10.37;7.53;;;;;;;1.12;88.42;100761.28;4969150;28;20201;-79
2021/12/03 07:58:10;;;;;;;9.67;7.87;;;;;;;1.10;88.45;100762.81;4964163;28;20197;-78
2021/12/03 08:00:36;;;;;;;10.57;7.77;;;;;;;1.15;87.93;100756.38;4957436;28;20181;-78
2021/12/03 08:03:02;;;;;;;13.27;8.20;;;;;;;1.19;88.47;100758.28;4972351;28;20217;-74
2021/12/03 08:05:27;;;;;;;11.13;8.43;;;;;;;1.18;87.42;100755.69;4951599;28;20192;-75
2021/12/03 08:07:53;;;;;;;11.53;8.23;;;;;;;1.18;88.31;100755.69;4951522;28;20613;-73
2021/12/03 08:10:19;;;;;;;11.60;8.80;;;;;;;1.33;88.49;100747.28;4949657;29;20693;-76
2021/12/03 08:12:46;;;;;;;17.03;9.27;;;;;;;1.55;88.39;100755.22;4950254;28;20245;-76
2021/12/03 08:15:12;;;;;;;11.50;8.87;;;;;;;1.49;87.12;100759.06;4939636;28;20278;-73
2021/12/03 08:17:38;;;;;;;12.10;9.10;;;;;;;1.43;86.95;100757.13;4965020;28;20193;-73
2021/12/03 08:20:05;;;;;;;12.73;9.73;;;;;;;1.40;87.15;100756.06;4950803;28;20204;-74
2021/12/03 08:22:30;;;;;;;13.37;10.20;;;;;;;1.43;87.42;100764.69;4950756;28;20256;-74
2021/12/03 08:24:56;;;;;;;14.27;10.77;;;;;;;1.45;87.20;100765.63;4951013;28;20561;-74
2021/12/03 08:27:21;;;;;;;17.60;11.87;;;;;;;1.50;86.50;100769.25;4951016;28;20711;-73
2021/12/03 08:29:47;;;;;;;15.60;11.83;;;;;;;1.52;86.11;100765.13;4950863;28;20279;-74
2021/12/03 08:32:12;;;;;;;16.73;12.70;;;;;;;1.53;85.78;100766.91;4951001;28;20228;-74
2021/12/03 08:34:38;;;;;;;18.10;12.70;;;;;;;1.46;86.90;100764.81;4950245;28;20201;-74
2021/12/03 08:37:06;;;;;;;16.90;12.77;;;;;;;1.41;86.45;100761.19;4966101;28;20208;-73
2021/12/03 08:39:32;;;;;;;15.73;13.17;;;;;;;1.40;87.35;100768.66;4950872;28;20221;-73
2021/12/03 08:41:58;;;;;;;21.13;14.83;;;;;;;1.37;87.20;100769.38;4949601;29;20209;-74
2021/12/03 08:44:24;;;;;;;21.93;13.90;;;;;;;1.41;86.87;100776.31;4950314;28;20630;-74
2021/12/03 08:46:57;;;;;;;19.70;15.53;;;;;;;1.44;86.53;100783.19;4951132;28;20699;-75
2021/12/03 08:49:29;;;;;;;20.70;15.90;;;;;;;1.50;86.66;100779.34;4950499;28;20248;-74
2021/12/03 08:54:53;;;;;;;20.37;14.73;;;;;;;1.67;85.88;100785.28;4954689;28;20308;-73
2021/12/03 08:57:24;;;;;;;19.37;15.37;;;;;;;1.74;85.12;100784.84;4951145;28;20269;-74
2021/12/03 08:59:52;;;;;;;25.07;15.60;;;;;;;1.78;85.52;100790.09;4951302;28;20612;-73
2021/12/03 09:02:18;;;;;;;21.10;15.97;;;;;;;1.84;85.69;100782.00;4954238;28;20229;-73
2021/12/03 09:04:44;;;;;;;22.10;15.67;;;;;;;1.86;85.51;100777.88;4954407;28;20618;-74
2021/12/03 09:07:09;;;;;;;24.70;16.30;;;;;;;1.86;85.30;100780.41;4954377;28;20643;-74
2021/12/03 09:09:35;;;;;;;22.40;16.47;;;;;;;1.89;85.40;100788.16;4953997;28;20578;-75
2021/12/03 09:12:00;;;;;;;22.37;15.77;;;;;;;2.00;85.56;100782.00;4954131;28;20615;-74
2021/12/03 09:14:36;;;;;;;24.17;16.87;;;;;;;2.06;85.01;100778.13;4952954;29;20800;-76
2021/12/03 09:17:17;;;;;;;23.83;16.03;;;;;;;2.14;84.86;100781.03;4969075;28;20177;-74
2021/12/03 09:22:25;;;;;;;21.10;14.60;;;;;;;2.25;83.85;100790.91;4945587;28;20264;-74
2021/12/03 09:24:51;;;;;;;22.03;15.33;;;;;;;2.37;82.73;100776.38;4955881;28;20204;-78
2021/12/03 09:27:17;;;;;;;22.63;15.50;;;;;;;2.41;82.47;100777.41;4956878;29;20215;-78
2021/12/03 09:29:42;;;;;;;24.90;16.03;;;;;;;2.53;83.24;100780.53;4973336;28;20189;-77
2021/12/03 09:32:08;;;;;;;23.27;15.70;;;;;;;2.60;82.22;100775.00;4957744;28;20217;-77
2021/12/03 09:34:35;;;;;;;21.20;15.73;;;;;;;3.00;80.95;100776.13;4955730;28;20181;-74
2021/12/03 09:37:00;;;;;;;20.83;14.00;;;;;;;3.00;80.80;100779.56;4953792;28;20230;-74
2021/12/03 09:39:26;;;;;;;20.50;13.93;;;;;;;2.90;79.92;100771.44;4953367;28;20197;-74
2021/12/03 09:41:54;;;;;;;24.73;14.97;;;;;;;2.83;81.22;100774.44;4953883;28;20203;-75
2021/12/03 09:44:21;;;;;;;22.37;15.50;;;;;;;3.09;80.61;100769.00;4953028;28;20288;-76
2021/12/03 09:46:47;;;;;;;21.83;14.53;;;;;;;3.39;79.05;100773.81;4968056;28;20717;-75
2021/12/03 09:52:07;;;;;;;23.10;14.60;;;;;;;3.75;77.21;100770.44;4953634;28;20212;-74
2021/12/03 09:54:41;;;;;;;21.83;13.77;;;;;;;3.18;78.92;100764.38;4938256;29;20691;-76
2021/12/03 09:57:20;;;;;;;24.77;15.60;;;;;;;2.88;80.37;100760.38;4952857;28;20189;-73
2021/12/03 10:06:37;;;;;;;25.57;15.10;;;;;;;2.58;82.33;100766.47;4953112;28;20181;-73
2021/12/03 10:14:19;;;;;;;29.50;16.70;;;;;;;2.46;83.40;100744.00;4969991;28;20223;-75
2021/12/03 10:25:13;;;;;;;32.03;17.63;;;;;;;2.44;83.56;100738.00;4967730;28;20268;-75
2021/12/03 10:30:34;;;;;;;32.43;17.33;;;;;;;2.50;84.25;100733.25;4970232;28;20181;-75
2021/12/03 10:41:45;;;;;;;31.67;17.00;;;;;;;2.70;83.74;100726.63;4952799;28;20215;-75
2021/12/03 10:44:16;;;;;;;30.33;16.50;;;;;;;2.71;83.12;100728.38;4952806;28;20180;-75
2021/12/03 10:55:05;;;;;;;33.83;17.53;;;;;;;2.64;83.79;100714.59;4952275;28;20185;-75
2021/12/03 11:08:28;;;;;;;35.70;19.33;;;;;;;2.78;84.19;100688.31;4951793;28;20685;-75
2021/12/03 11:11:21;;;;;;;36.27;17.87;;;;;;;2.79;84.25;100687.50;4951988;28;20201;-75
2021/12/03 11:25:46;;;;;;;36.90;19.87;;;;;;;2.85;84.33;100671.78;4956136;28;20213;-76
2021/12/03 11:53:23;;;;;;;40.60;20.97;;;;;;;2.86;85.23;100643.16;4951063;28;20605;-75
2021/12/03 12:14:26;;;;;;;40.23;20.17;;;;;;;3.00;85.08;100626.97;4955924;28;20988;-76
2021/12/03 12:27:27;;;;;;;42.70;21.13;;;;;;;3.13;85.25;100604.81;4952386;28;20350;-76
2021/12/03 13:11:21;;;;;;;37.97;20.47;;;;;;;3.38;82.86;100516.56;4957691;28;20256;-77
2021/12/03 13:14:14;;;;;;;33.87;18.33;;;;;;;3.44;82.83;100531.09;4955997;28;20225;-77
2021/12/03 13:31:45;;;;;;;33.73;18.97;;;;;;;4.06;79.85;100496.56;4957642;29;20177;-76
2021/12/03 14:06:58;;;;;;;34.27;17.80;;;;;;;3.49;79.42;100484.97;4955207;28;20203;-77
2021/12/03 14:15:29;;;;;;;32.93;16.73;;;;;;;3.52;78.40;100471.56;4955640;28;20210;-78
2021/12/03 14:39:29;;;;;;;29.53;15.10;;;;;;;3.47;81.00;100418.25;4935151;29;20193;-75
2021/12/03 14:44:41;;;;;;;27.67;14.07;;;;;;;3.41;81.67;100424.72;4934908;29;20190;-77
2021/12/03 14:56:08;;;;;;;32.83;15.07;;;;;;;3.26;83.46;100397.13;4962319;28;20212;-76
2021/12/03 15:08:57;;;;;;;28.47;13.70;;;;;;;3.18;84.92;100387.53;4953147;28;20534;-77
2021/12/03 15:14:31;;;;;;;25.30;13.37;;;;;;;3.09;85.56;100385.47;4967542;28;20223;-77
2021/12/03 15:25:03;;;;;;;25.03;14.23;;;;;;;2.85;88.17;100381.06;4967944;28;20216;-76
2021/12/03 15:38:06;;;;;;;27.90;15.83;;;;;;;2.68;90.37;100372.78;4952018;28;20196;-77
2021/12/03 16:05:27;;;;;;;26.77;15.53;;;;;;;2.47;91.56;100338.13;4952105;28;20192;-75
2021/12/03 16:08:15;;;;;;;24.93;15.10;;;;;;;2.49;91.68;100336.56;4952254;28;20667;-76
2021/12/03 16:13:16;;;;;;;23.63;14.87;;;;;;;2.40;91.99;100323.53;4966659;28;20281;-76
2021/12/03 16:18:45;;;;;;;23.80;14.50;;;;;;;2.38;91.19;100312.47;4951693;28;20280;-77
2021/12/03 16:27:08;;;;;;;22.43;13.80;;;;;;;2.36;91.95;100287.19;4950404;28;20221;-77
2021/12/03 16:51:31;;;;;;;21.50;12.80;;;;;;;2.39;93.15;100278.88;4953292;28;20219;-74
2021/12/03 16:54:08;;;;;;;23.60;13.23;;;;;;;2.38;93.44;100277.13;4950899;28;20240;-75
2021/12/03 16:56:36;;;;;;;20.23;11.80;;;;;;;2.38;93.64;100272.06;4951069;29;20555;-73
2021/12/03 16:59:03;;;;;;;23.23;12.50;;;;;;;2.38;93.64;100267.91;4950936;28;20189;-75
2021/12/03 17:04:10;;;;;;;19.43;11.73;;;;;;;2.36;94.21;100264.47;4951267;28;20186;-75